Mc Clellan Airfield
KMCC : now visible

Airfield :











YOU CAN JOIN US ON...

 
LOGIN :

Register | Disclaimer

   EN    FR    IT 

 









Legend :    VFR   Marginal VFR   IFR   Intensive IFR   Very Intensive IFR
Visi :
Ceiling :
>= 8 km
>= 3000ft
5 to 8 km
1000 to 3000 ft
1500m to 5 km
500 to 1000 ft
800 to 1500m
200 to 500 ft
< 800m
< 200 ft
Symbols :   Thunderstorms  Fog  Heavy snow  Heavy precipitations  Wind > 20 kt






- Airport Elevation : 77 ft


KMCC - Mc Clellan

CURRENT METAR :
  • 170935Z AUTO 06004KT 9SM CLR 09/07 A3013 RMK AO2

EXPIRED METARs :
  • 170915Z AUTO 07005KT 10SM CLR 09/08 A3013 RMK AO2
  • 170855Z AUTO 03003KT 7SM CLR 08/07 A3014 RMK AO2
  • 170835Z AUTO 00000KT 10SM CLR 08/07 A3014 RMK AO2
  • 170815Z AUTO 00000KT 9SM CLR 09/08 A3014 RMK AO2
  • 170755Z AUTO 00000KT 10SM CLR 09/08 A3013 RMK AO2
  • 170735Z AUTO 00000KT 10SM CLR 11/08 A3013 RMK AO2
  • 170715Z AUTO 11004KT 10SM CLR 10/08 A3013 RMK AO2
  • 170655Z AUTO 12004KT 10SM CLR 12/08 A3014 RMK AO2

TAF KMCC
Valid from the 17 at 06:00 until the 18 at 06:00 UTC


170530Z 1706/1806 12004KT P6SM SKC
FM170800 VRB04KT 6SM BR SCT250
FM171800 15002KT P6SM BKN250
KZOA FIR / North America



MET'MAP, your aeronautical weather chart ! - Copyright ORBIFLY December 2007 - Disclaimer

ORBIFLY MET'MAP TEAM :

Programming & Development : Alexandra Zaïnal
Concept & original design : Baudouin d'Aumeries
Assistance for programming : Marc-Olivier Méhu
Technical & hardware support : Manuel Goepfert

Contact : metmap@orbifly.com




SOURCES & CREDITS :

   NOAA       Earth
Advisory